Time;durP1;ratioP1;P1;durP2;ratioP2;P2;SDS_P1;SDS_P2;PMS_P1;PMS_P2;Temp;Humidity;BMP_temperature;BMP_pressure;BME280_temperature;BME280_humidity;BME280_pressure;Samples;Min_cycle;Max_cycle;Signal;HPM_P1;HPM_P2
2023/10/16 00:00:32;;;;;;;2.77;2.40;;;;;;;5.57;100.00;99903.38;6125731;23;20155;-87
2023/10/16 00:03:06;;;;;;;2.60;2.40;;;;;;;5.56;100.00;99906.22;6125894;23;20211;-86
2023/10/16 00:05:38;;;;;;;2.50;2.30;;;;;;;5.51;100.00;99903.25;6125543;23;20226;-88
2023/10/16 00:08:27;;;;;;;3.50;2.50;;;;;;;5.56;100.00;99904.38;6125043;23;20299;-87
2023/10/16 00:10:57;;;;;;;2.17;1.97;;;;;;;5.50;100.00;99906.94;6125392;23;20172;-88
2023/10/16 00:13:26;;;;;;;2.90;2.17;;;;;;;5.35;100.00;99914.88;6125407;23;20191;-87
2023/10/16 00:15:59;;;;;;;2.47;2.20;;;;;;;5.42;100.00;99912.31;6100909;23;20190;-86
2023/10/16 00:18:34;;;;;;;3.27;2.17;;;;;;;5.41;100.00;99910.69;6101635;23;20258;-86
2023/10/16 00:21:05;;;;;;;3.57;2.30;;;;;;;5.36;100.00;99897.09;6102337;23;20172;-88
2023/10/16 00:23:40;;;;;;;2.27;1.80;;;;;;;5.31;100.00;99898.47;6125835;23;20227;-85
2023/10/16 00:26:22;;;;;;;2.20;2.00;;;;;;;5.30;100.00;99903.97;6103551;23;20167;-87
2023/10/16 00:29:17;;;;;;;2.13;1.90;;;;;;;5.23;100.00;99906.50;6104317;23;20276;-88
2023/10/16 00:31:51;;;;;;;2.27;1.80;;;;;;;5.22;100.00;99904.88;6126046;23;20168;-88
2023/10/16 00:34:23;;;;;;;2.80;2.00;;;;;;;5.16;100.00;99900.25;6102545;23;20173;-87
2023/10/16 00:36:58;;;;;;;2.90;2.00;;;;;;;5.15;100.00;99900.44;6102958;23;20172;-84
2023/10/16 00:39:29;;;;;;;2.20;1.97;;;;;;;5.18;100.00;99894.78;6080211;23;20179;-85
2023/10/16 00:42:00;;;;;;;2.23;1.83;;;;;;;5.23;100.00;99895.88;6078317;23;20521;-87
2023/10/16 00:44:38;;;;;;;2.20;1.73;;;;;;;5.16;100.00;99897.59;6125500;23;20199;-85
2023/10/16 00:47:10;;;;;;;1.87;1.77;;;;;;;5.19;100.00;99899.88;6079640;23;20163;-88
2023/10/16 00:49:51;;;;;;;2.53;1.80;;;;;;;5.18;100.00;99892.91;6101935;23;20179;-87
2023/10/16 00:52:24;;;;;;;2.13;1.70;;;;;;;5.16;100.00;99891.47;6079055;23;20162;-87
2023/10/16 00:54:53;;;;;;;1.80;1.50;;;;;;;5.08;100.00;99879.09;6079667;23;20171;-86
2023/10/16 00:57:27;;;;;;;1.97;1.70;;;;;;;5.11;100.00;99892.00;6125499;23;20168;-88
2023/10/16 00:59:59;;;;;;;1.83;1.40;;;;;;;5.09;100.00;99893.16;6102155;23;20206;-87
2023/10/16 01:02:33;;;;;;;4.27;1.50;;;;;;;5.22;100.00;99893.41;6078472;23;20678;-87
2023/10/16 01:05:02;;;;;;;3.23;1.87;;;;;;;5.22;100.00;99890.75;6126499;23;20205;-87
2023/10/16 01:07:32;;;;;;;1.73;1.60;;;;;;;5.16;100.00;99899.44;6102530;23;20195;-86
2023/10/16 01:10:10;;;;;;;2.00;1.50;;;;;;;5.18;100.00;99902.75;6102168;23;20251;-86
2023/10/16 01:12:40;;;;;;;3.40;1.50;;;;;;;5.16;100.00;99908.22;6126597;23;20187;-87
2023/10/16 01:15:17;;;;;;;3.03;1.70;;;;;;;5.21;100.00;99899.72;6081032;23;20195;-87
2023/10/16 01:17:50;;;;;;;2.17;1.50;;;;;;;5.10;100.00;99908.09;6127052;23;20152;-88
2023/10/16 01:20:21;;;;;;;2.40;1.57;;;;;;;5.04;100.00;99909.63;6125300;23;20197;-87
2023/10/16 01:22:53;;;;;;;2.33;1.60;;;;;;;5.09;100.00;99922.38;6078476;23;20164;-87
2023/10/16 01:25:25;;;;;;;2.73;1.70;;;;;;;5.04;100.00;99922.09;6101790;23;20673;-88
2023/10/16 01:27:54;;;;;;;1.73;1.60;;;;;;;4.99;100.00;99922.63;6101763;23;20187;-89
2023/10/16 01:30:24;;;;;;;1.67;1.47;;;;;;;5.05;100.00;99921.06;6101785;23;20638;-89
2023/10/16 01:32:55;;;;;;;1.50;1.40;;;;;;;5.12;100.00;99922.03;6101777;23;20270;-88
2023/10/16 01:35:24;;;;;;;1.83;1.50;;;;;;;5.02;100.00;99922.28;6078063;23;20178;-89
2023/10/16 01:37:57;;;;;;;2.27;1.60;;;;;;;5.02;100.00;99924.09;6102041;23;20668;-87
2023/10/16 01:40:25;;;;;;;3.03;1.60;;;;;;;5.00;100.00;99928.75;6077572;23;20191;-88
2023/10/16 01:42:59;;;;;;;2.40;1.70;;;;;;;4.93;100.00;99923.34;6078109;23;20206;-87
2023/10/16 01:45:30;;;;;;;1.93;1.40;;;;;;;4.80;100.00;99928.41;6125432;23;20152;-87
2023/10/16 01:47:57;;;;;;;2.23;1.23;;;;;;;4.85;100.00;99926.84;6077501;23;20192;-86
2023/10/16 01:50:27;;;;;;;3.80;1.70;;;;;;;4.79;100.00;99929.41;6101210;23;20164;-87
2023/10/16 01:52:54;;;;;;;2.43;1.60;;;;;;;4.80;100.00;99928.41;6102272;23;20453;-87
2023/10/16 01:55:23;;;;;;;1.53;1.43;;;;;;;4.73;100.00;99935.41;6103175;23;20169;-88
2023/10/16 01:57:59;;;;;;;3.47;1.50;;;;;;;4.73;100.00;99936.22;6080974;23;20191;-88
2023/10/16 02:00:34;;;;;;;2.93;1.60;;;;;;;4.73;100.00;99944.19;6079761;23;20174;-88
2023/10/16 02:03:08;;;;;;;1.60;1.50;;;;;;;4.66;100.00;99942.41;6127271;23;20199;-87
2023/10/16 02:05:41;;;;;;;1.60;1.50;;;;;;;4.65;100.00;99943.41;6127118;23;20144;-86
2023/10/16 02:08:12;;;;;;;1.87;1.40;;;;;;;4.69;100.00;99942.06;6127274;23;20188;-87
2023/10/16 02:10:42;;;;;;;1.50;1.40;;;;;;;4.88;100.00;99942.44;6103015;23;20678;-87
2023/10/16 02:13:15;;;;;;;2.17;1.43;;;;;;;4.80;100.00;99949.63;6127155;23;20629;-89
2023/10/16 02:15:42;;;;;;;2.17;1.53;;;;;;;4.77;100.00;99939.34;6127227;23;20179;-84
2023/10/16 02:18:36;;;;;;;1.50;1.30;;;;;;;4.64;100.00;99937.28;6079237;23;20202;-86
2023/10/16 02:21:02;;;;;;;1.77;1.60;;;;;;;4.56;100.00;99944.44;6127081;23;20179;-88
2023/10/16 02:23:34;;;;;;;1.60;1.50;;;;;;;4.55;100.00;99946.28;6127605;23;20199;-87
2023/10/16 02:26:06;;;;;;;2.57;1.60;;;;;;;4.52;100.00;99937.84;6127287;23;20154;-87
2023/10/16 02:28:40;;;;;;;2.67;1.60;;;;;;;4.52;100.00;99938.66;6080825;23;20217;-86
2023/10/16 02:31:19;;;;;;;1.60;1.50;;;;;;;4.47;100.00;99938.34;6127178;23;20152;-88
2023/10/16 02:33:53;;;;;;;1.70;1.50;;;;;;;4.52;100.00;99935.19;6104097;23;20152;-88
2023/10/16 02:36:29;;;;;;;2.43;1.70;;;;;;;4.47;100.00;99927.75;6105265;23;20211;-88
2023/10/16 02:38:57;;;;;;;3.20;1.60;;;;;;;4.49;100.00;99932.84;6103337;23;20202;-86
2023/10/16 02:41:26;;;;;;;1.93;1.57;;;;;;;4.56;100.00;99931.19;6103102;23;20244;-87
2023/10/16 02:43:56;;;;;;;1.67;1.57;;;;;;;4.48;100.00;99926.72;6103414;23;20218;-88
2023/10/16 02:46:25;;;;;;;1.63;1.40;;;;;;;4.48;100.00;99929.38;6079546;23;20175;-88
2023/10/16 02:48:55;;;;;;;1.80;1.70;;;;;;;4.51;100.00;99938.84;6126708;23;20187;-87
2023/10/16 02:51:27;;;;;;;1.80;1.40;;;;;;;4.50;100.00;99935.34;6102601;23;20160;-88
2023/10/16 02:53:59;;;;;;;1.80;1.70;;;;;;;4.55;100.00;99933.00;6103245;23;20171;-87
2023/10/16 02:56:28;;;;;;;2.73;1.80;;;;;;;4.57;100.00;99935.50;6126397;23;20243;-89
2023/10/16 02:59:07;;;;;;;2.00;1.80;;;;;;;4.54;100.00;99935.81;6126809;23;20176;-86
2023/10/16 03:01:38;;;;;;;1.87;1.77;;;;;;;4.53;100.00;99929.69;6126630;23;20191;-87
2023/10/16 03:04:36;;;;;;;2.30;1.83;;;;;;;4.51;100.00;99937.00;6107620;23;20528;-88
2023/10/16 03:07:07;;;;;;;2.67;1.97;;;;;;;4.49;100.00;99932.84;6080426;23;20174;-87
2023/10/16 03:09:36;;;;;;;2.63;1.90;;;;;;;4.43;100.00;99935.19;6079364;23;20196;-89
2023/10/16 03:12:09;;;;;;;2.37;1.87;;;;;;;4.46;100.00;99938.53;6103915;23;20244;-87
2023/10/16 03:14:46;;;;;;;2.57;1.67;;;;;;;4.42;100.00;99938.88;6126891;23;20163;-88
2023/10/16 03:17:25;;;;;;;2.00;1.80;;;;;;;4.38;100.00;99940.22;6081769;23;20172;-87
2023/10/16 03:19:57;;;;;;;2.43;1.80;;;;;;;4.25;100.00;99949.69;6081365;23;20164;-89
2023/10/16 03:22:38;;;;;;;2.03;1.83;;;;;;;4.33;100.00;99957.66;6081053;23;20167;-86
2023/10/16 03:25:24;;;;;;;2.27;1.90;;;;;;;4.25;100.00;99950.53;6104329;23;20246;-86
2023/10/16 03:27:57;;;;;;;1.90;1.80;;;;;;;4.28;100.00;99957.34;6084847;23;20164;-87
2023/10/16 03:30:29;;;;;;;2.50;2.30;;;;;;;4.28;100.00;99960.00;6102737;23;20191;-87
2023/10/16 03:32:59;;;;;;;1.97;1.87;;;;;;;4.18;100.00;99972.63;6079910;23;20183;-88
2023/10/16 03:35:34;;;;;;;2.23;2.00;;;;;;;4.27;100.00;99977.72;6126708;23;20175;-89
2023/10/16 03:38:11;;;;;;;2.07;1.90;;;;;;;4.17;100.00;99978.91;6080303;23;20172;-88
2023/10/16 03:40:43;;;;;;;5.53;2.13;;;;;;;4.04;100.00;99968.00;6103105;23;20206;-89
2023/10/16 03:43:15;;;;;;;2.23;1.87;;;;;;;4.05;100.00;99964.38;6079536;23;20629;-87
2023/10/16 03:45:46;;;;;;;2.93;1.90;;;;;;;4.04;100.00;99970.66;6102437;23;20630;-89
2023/10/16 03:48:15;;;;;;;2.80;1.80;;;;;;;4.05;100.00;99967.84;6127512;23;20207;-88
2023/10/16 03:50:43;;;;;;;2.60;2.10;;;;;;;4.06;100.00;99956.22;6102833;23;20166;-89
2023/10/16 03:53:16;;;;;;;2.27;1.80;;;;;;;4.11;100.00;99956.53;6103151;23;20171;-87
2023/10/16 03:55:45;;;;;;;1.83;1.73;;;;;;;4.01;100.00;99957.75;6101270;23;20610;-87
2023/10/16 03:58:12;;;;;;;3.53;1.90;;;;;;;3.91;100.00;99960.59;6078338;23;20180;-87
2023/10/16 04:00:50;;;;;;;3.40;1.87;;;;;;;3.91;100.00;99958.78;6077810;23;20176;-89
2023/10/16 04:03:26;;;;;;;2.60;1.90;;;;;;;3.85;100.00;99969.19;6103483;23;20250;-87
2023/10/16 04:05:54;;;;;;;2.67;1.90;;;;;;;3.83;100.00;99963.22;6102302;23;20159;-88
2023/10/16 04:08:22;;;;;;;2.23;1.93;;;;;;;3.79;100.00;99961.91;6102184;23;20218;-87
2023/10/16 04:10:53;;;;;;;3.53;1.90;;;;;;;3.71;100.00;99973.38;6078098;23;20168;-87
2023/10/16 04:13:31;;;;;;;2.20;2.00;;;;;;;3.63;100.00;99968.09;6078785;23;20202;-86
2023/10/16 04:18:30;;;;;;;2.60;2.17;;;;;;;3.50;100.00;99970.38;6102890;23;20258;-89
2023/10/16 04:31:44;;;;;;;2.60;2.37;;;;;;;3.26;100.00;99973.88;6103391;23;20160;-89
2023/10/16 04:37:49;;;;;;;2.77;2.33;;;;;;;3.13;100.00;99964.75;6125883;23;20152;-88
2023/10/16 04:53:27;;;;;;;3.70;3.10;;;;;;;3.19;100.00;99974.69;6106866;23;20179;-90
2023/10/16 04:56:05;;;;;;;3.40;2.90;;;;;;;3.28;100.00;99963.94;6102509;23;20164;-88
2023/10/16 04:58:38;;;;;;;3.43;3.10;;;;;;;3.21;100.00;99970.06;6103642;23;20179;-88
2023/10/16 05:01:33;;;;;;;3.30;2.97;;;;;;;3.28;100.00;99961.28;6126443;23;20162;-88
2023/10/16 05:04:34;;;;;;;3.70;3.30;;;;;;;3.34;100.00;99957.97;6126485;23;20259;-89
2023/10/16 05:07:16;;;;;;;4.50;2.77;;;;;;;3.35;100.00;99954.34;6090343;23;20181;-89
2023/10/16 05:15:51;;;;;;;3.50;2.80;;;;;;;3.20;100.00;99963.94;6105738;23;20178;-88
2023/10/16 05:18:43;;;;;;;3.50;2.80;;;;;;;3.23;100.00;99960.94;6107831;23;20227;-87
2023/10/16 05:21:51;;;;;;;4.50;3.23;;;;;;;3.26;100.00;99959.81;6126114;23;20167;-89
2023/10/16 06:14:51;;;;;;;4.77;3.40;;;;;;;4.98;100.00;100015.75;6107146;23;20611;-86
2023/10/16 06:17:20;;;;;;;4.67;3.43;;;;;;;5.05;100.00;100019.34;6080035;23;20164;-89
2023/10/16 06:19:54;;;;;;;4.30;3.50;;;;;;;5.14;100.00;100012.97;6081489;23;20171;-87
2023/10/16 06:22:32;;;;;;;4.70;3.40;;;;;;;5.24;100.00;100024.22;6081664;23;20168;-89
2023/10/16 06:25:02;;;;;;;4.87;3.97;;;;;;;5.32;100.00;100024.97;6080598;23;20168;-87
2023/10/16 06:27:33;;;;;;;5.03;4.53;;;;;;;5.41;100.00;100028.44;6128135;23;20194;-88
2023/10/16 06:30:05;;;;;;;4.13;3.63;;;;;;;5.47;100.00;100025.03;6103608;23;20191;-87
2023/10/16 06:32:36;;;;;;;4.43;3.73;;;;;;;5.52;100.00;100027.19;6081484;23;20202;-88
2023/10/16 06:35:07;;;;;;;4.67;4.00;;;;;;;5.53;100.00;100018.19;6079081;23;20262;-89
2023/10/16 06:37:38;;;;;;;4.87;4.43;;;;;;;5.59;100.00;100013.00;6079398;23;20179;-86
2023/10/16 06:40:16;;;;;;;4.63;4.03;;;;;;;5.66;100.00;100021.09;6103352;23;20190;-87
2023/10/16 06:42:45;;;;;;;4.40;4.00;;;;;;;5.78;100.00;100017.81;6081376;23;20179;-87
2023/10/16 06:45:19;;;;;;;4.50;4.10;;;;;;;5.93;100.00;100014.41;6079231;23;20173;-87
2023/10/16 06:47:58;;;;;;;4.53;3.63;;;;;;;6.12;100.00;100012.06;6081649;23;20165;-85
2023/10/16 06:52:59;;;;;;;4.00;3.70;;;;;;;6.39;100.00;100015.91;6103132;23;20251;-87
2023/10/16 06:55:30;;;;;;;4.07;3.50;;;;;;;6.48;100.00;100014.03;6103054;23;20178;-87
2023/10/16 06:58:01;;;;;;;4.03;3.00;;;;;;;6.60;100.00;100015.19;6080022;23;20172;-89
2023/10/16 07:00:32;;;;;;;4.57;3.60;;;;;;;6.68;100.00;100007.09;6126338;23;20176;-85
2023/10/16 07:03:02;;;;;;;3.57;3.23;;;;;;;6.77;100.00;100007.81;6103708;23;20199;-83
2023/10/16 07:05:44;;;;;;;3.37;3.03;;;;;;;6.87;100.00;100013.69;6102171;23;20178;-84
2023/10/16 07:08:18;;;;;;;4.67;3.03;;;;;;;6.96;100.00;100016.06;6126526;23;20603;-87
2023/10/16 07:10:49;;;;;;;3.20;2.90;;;;;;;7.08;100.00;100011.91;6101914;23;20190;-85
2023/10/16 07:13:28;;;;;;;2.80;2.50;;;;;;;7.20;100.00;100006.06;6079778;23;20222;-84
2023/10/16 07:16:03;;;;;;;2.70;2.50;;;;;;;7.28;100.00;100006.78;6103278;23;20148;-86
2023/10/16 07:18:33;;;;;;;4.03;3.63;;;;;;;7.38;100.00;100012.63;6078488;23;20194;-87
2023/10/16 07:21:09;;;;;;;4.13;3.73;;;;;;;7.47;100.00;100016.81;6101860;23;20170;-84
2023/10/16 07:23:39;;;;;;;3.43;3.10;;;;;;;7.56;100.00;100016.72;6103403;23;20174;-85
2023/10/16 07:26:11;;;;;;;3.77;2.80;;;;;;;7.62;100.00;100019.44;6126099;23;20235;-83
2023/10/16 07:28:48;;;;;;;3.37;2.93;;;;;;;7.70;100.00;100013.16;6102434;23;20156;-83
2023/10/16 07:31:16;;;;;;;4.00;2.87;;;;;;;7.75;100.00;100010.72;6100917;23;20164;-82
2023/10/16 07:33:45;;;;;;;3.47;2.60;;;;;;;7.77;100.00;100004.19;6101272;23;20175;-85
2023/10/16 07:36:17;;;;;;;3.10;2.27;;;;;;;7.87;100.00;100006.53;6077928;23;20198;-84
2023/10/16 07:38:49;;;;;;;2.40;2.20;;;;;;;7.91;100.00;100013.94;6125534;23;20677;-83
2023/10/16 07:41:19;;;;;;;3.87;2.87;;;;;;;7.95;100.00;100014.38;6123872;23;20175;-82
2023/10/16 07:43:55;;;;;;;3.53;2.53;;;;;;;8.03;100.00;100016.06;6101800;23;20247;-83
2023/10/16 07:46:30;;;;;;;3.67;2.47;;;;;;;8.08;100.00;100013.66;6124500;23;20199;-83
2023/10/16 07:49:03;;;;;;;3.27;2.60;;;;;;;8.16;100.00;100014.34;6125377;23;20198;-85
2023/10/16 07:51:32;;;;;;;3.07;2.30;;;;;;;8.21;100.00;100005.75;6101075;23;20254;-85
2023/10/16 07:54:07;;;;;;;3.13;2.30;;;;;;;8.34;100.00;100005.88;6125178;23;20258;-86
2023/10/16 07:56:38;;;;;;;2.87;2.20;;;;;;;8.37;100.00;100006.31;6124967;23;20168;-85
2023/10/16 07:59:18;;;;;;;4.47;2.30;;;;;;;8.41;100.00;100004.06;6078152;23;20251;-83
2023/10/16 08:01:56;;;;;;;3.20;2.20;;;;;;;8.43;100.00;100007.38;6102354;23;20164;-82
2023/10/16 08:07:05;;;;;;;3.00;2.40;;;;;;;8.55;100.00;100005.78;6100770;23;20168;-83
2023/10/16 08:15:09;;;;;;;3.53;2.00;;;;;;;8.75;100.00;99998.69;6105019;23;20222;-81
2023/10/16 08:17:59;;;;;;;2.27;1.90;;;;;;;8.86;100.00;99996.50;6105759;23;20242;-83
2023/10/16 08:20:49;;;;;;;2.77;1.83;;;;;;;8.98;100.00;99995.72;6101746;23;20624;-82
2023/10/16 08:23:16;;;;;;;2.90;2.00;;;;;;;9.09;100.00;99991.63;6104785;23;20194;-82
2023/10/16 08:25:47;;;;;;;3.03;2.03;;;;;;;9.15;100.00;99996.97;6076498;23;20168;-83
2023/10/16 08:28:20;;;;;;;2.17;1.93;;;;;;;9.22;100.00;99991.66;6101735;23;20251;-82
2023/10/16 08:33:19;;;;;;;4.33;2.00;;;;;;;9.38;100.00;99996.63;6101183;23;20163;-84
2023/10/16 08:35:47;;;;;;;2.97;2.00;;;;;;;9.44;100.00;99993.16;6101081;23;20170;-84
2023/10/16 08:38:21;;;;;;;3.33;1.90;;;;;;;9.54;100.00;99998.09;6100954;23;20581;-82
2023/10/16 08:41:06;;;;;;;3.93;2.10;;;;;;;9.62;100.00;99992.53;6099685;23;20180;-85
2023/10/16 08:43:52;;;;;;;2.43;2.17;;;;;;;9.67;100.00;99993.59;6103647;23;20202;-82
2023/10/16 08:46:30;;;;;;;2.90;1.97;;;;;;;9.81;100.00;99990.91;6080271;23;20178;-82
2023/10/16 08:49:03;;;;;;;2.30;2.00;;;;;;;9.96;100.00;99995.03;6101912;23;20202;-83
2023/10/16 08:51:31;;;;;;;2.10;1.90;;;;;;;10.14;100.00;99989.88;6100031;23;20258;-84
2023/10/16 08:54:02;;;;;;;3.83;2.30;;;;;;;10.36;100.00;99987.00;6077788;23;20171;-83
2023/10/16 08:56:32;;;;;;;2.77;1.90;;;;;;;10.57;100.00;99986.72;6076345;23;20195;-83
2023/10/16 08:59:01;;;;;;;3.00;1.90;;;;;;;10.69;100.00;99976.16;6077093;23;20183;-83
2023/10/16 09:01:33;;;;;;;2.27;1.80;;;;;;;10.82;100.00;99986.84;6100310;23;20250;-83
2023/10/16 09:04:10;;;;;;;3.57;2.30;;;;;;;11.01;100.00;99978.69;6080227;23;20167;-85
2023/10/16 09:06:38;;;;;;;1.93;1.77;;;;;;;11.09;100.00;99972.28;6099989;23;20232;-83
2023/10/16 09:09:15;;;;;;;2.97;1.90;;;;;;;11.26;100.00;99980.63;6100163;23;20172;-83
2023/10/16 09:11:51;;;;;;;4.80;1.90;;;;;;;11.39;100.00;99969.81;6124546;23;20163;-82
2023/10/16 09:14:28;;;;;;;2.87;1.60;;;;;;;11.48;100.00;99969.34;6101458;23;20213;-84
2023/10/16 09:16:58;;;;;;;2.77;1.60;;;;;;;11.64;100.00;99968.00;6100818;23;20192;-84
2023/10/16 09:19:34;;;;;;;3.93;1.67;;;;;;;11.72;100.00;99969.56;6101224;23;20168;-83
2023/10/16 09:22:08;;;;;;;2.53;1.80;;;;;;;11.84;100.00;99965.19;6079042;23;20163;-83
2023/10/16 09:24:45;;;;;;;2.90;1.60;;;;;;;12.04;100.00;99965.81;6079208;23;20167;-83
2023/10/16 09:27:17;;;;;;;2.03;1.60;;;;;;;12.24;100.00;99971.00;6100712;23;20555;-83
2023/10/16 09:29:55;;;;;;;2.13;1.40;;;;;;;12.10;100.00;99961.44;6078756;23;20199;-82
2023/10/16 09:32:28;;;;;;;3.13;1.60;;;;;;;12.15;100.00;99959.72;6099967;23;20231;-83
2023/10/16 09:34:58;;;;;;;3.80;1.60;;;;;;;12.14;100.00;99955.41;6077189;23;20172;-85
2023/10/16 09:37:34;;;;;;;1.87;1.40;;;;;;;12.45;100.00;99962.53;6100638;23;20214;-83
2023/10/16 09:40:19;;;;;;;3.13;1.80;;;;;;;12.78;100.00;99946.00;6078002;23;20605;-86
2023/10/16 09:43:05;;;;;;;2.33;1.80;;;;;;;13.12;100.00;99948.06;6083196;23;20169;-84
2023/10/16 09:45:36;;;;;;;3.17;1.53;;;;;;;12.62;100.00;99943.94;6100995;23;20197;-84
2023/10/16 09:48:09;;;;;;;3.10;1.93;;;;;;;12.52;100.00;99949.81;6100116;23;20176;-83
2023/10/16 09:50:42;;;;;;;2.77;1.80;;;;;;;13.05;100.00;99939.22;6101448;23;20185;-83
2023/10/16 09:53:14;;;;;;;2.30;1.43;;;;;;;13.52;100.00;99936.72;6077809;23;20219;-83
2023/10/16 09:55:48;;;;;;;3.03;1.73;;;;;;;12.78;100.00;99944.13;6076869;23;20176;-83
2023/10/16 09:58:21;;;;;;;2.57;1.57;;;;;;;12.86;100.00;99934.94;6079368;23;20166;-85
2023/10/16 10:00:52;;;;;;;2.47;1.50;;;;;;;13.30;100.00;99938.31;6101014;23;20205;-88
2023/10/16 10:03:21;;;;;;;2.23;2.00;;;;;;;13.05;100.00;99927.66;6100289;23;20729;-84
2023/10/16 10:08:38;;;;;;;2.77;1.50;;;;;;;12.41;100.00;99936.34;6102169;23;20179;-85
2023/10/16 10:11:26;;;;;;;2.43;1.80;;;;;;;11.90;100.00;99926.69;6078658;23;20192;-85
2023/10/16 10:14:09;;;;;;;3.13;1.70;;;;;;;12.35;100.00;99924.59;6125530;23;20974;-84
2023/10/16 10:16:40;;;;;;;1.57;1.33;;;;;;;11.98;100.00;99931.00;6080381;23;20176;-84
2023/10/16 10:19:31;;;;;;;2.23;1.60;;;;;;;11.84;100.00;99922.25;6102736;23;20190;-83
2023/10/16 10:22:22;;;;;;;1.90;1.50;;;;;;;11.68;100.00;99920.06;6079149;23;20513;-86
2023/10/16 10:25:29;;;;;;;2.53;1.50;;;;;;;11.34;100.00;99916.00;6105370;23;20187;-84
2023/10/16 10:28:09;;;;;;;1.70;1.47;;;;;;;11.01;100.00;99911.66;6032018;23;20266;-86
2023/10/16 10:30:39;;;;;;;1.67;1.57;;;;;;;10.92;100.00;99901.41;6079615;23;20191;-84
2023/10/16 10:33:36;;;;;;;3.10;1.60;;;;;;;10.88;100.00;99903.72;6078878;23;20202;-83
2023/10/16 10:36:38;;;;;;;2.33;1.50;;;;;;;10.78;100.00;99897.97;6125756;23;20206;-85
2023/10/16 10:42:13;;;;;;;2.13;1.30;;;;;;;10.77;100.00;99891.00;6127020;23;20159;-83
2023/10/16 10:44:53;;;;;;;1.67;1.40;;;;;;;10.66;100.00;99889.00;6105330;23;20140;-86
2023/10/16 10:47:33;;;;;;;1.43;1.20;;;;;;;10.58;100.00;99879.34;6029179;23;20175;-84
2023/10/16 10:50:12;;;;;;;2.67;1.30;;;;;;;10.66;100.00;99875.59;6103287;23;20658;-84
2023/10/16 10:52:51;;;;;;;2.53;1.20;;;;;;;10.68;100.00;99870.84;6106215;23;20168;-84
2023/10/16 10:55:26;;;;;;;1.63;1.10;;;;;;;10.71;100.00;99878.44;6101926;23;20629;-83
2023/10/16 10:57:58;;;;;;;2.20;1.10;;;;;;;10.78;100.00;99868.50;6126986;23;20235;-83
2023/10/16 11:05:33;;;;;;;1.37;1.00;;;;;;;11.08;100.00;99868.75;6101575;23;20167;-84
2023/10/16 11:10:46;;;;;;;3.23;1.00;;;;;;;11.45;100.00;99858.97;6126245;23;20179;-84
2023/10/16 11:13:17;;;;;;;1.43;1.10;;;;;;;11.70;100.00;99865.13;6101605;23;20202;-84
2023/10/16 11:16:00;;;;;;;1.83;1.10;;;;;;;11.94;100.00;99860.81;6102409;23;20223;-83
2023/10/16 11:19:00;;;;;;;1.83;1.03;;;;;;;12.24;100.00;99856.31;6107906;23;20673;-83
2023/10/16 11:21:28;;;;;;;1.47;1.03;;;;;;;12.45;100.00;99841.59;6078252;23;20167;-83
2023/10/16 11:24:07;;;;;;;1.87;1.10;;;;;;;12.63;100.00;99833.50;6078188;23;20230;-84
2023/10/16 11:26:58;;;;;;;1.47;1.03;;;;;;;12.71;100.00;99838.56;6077431;23;20173;-86
2023/10/16 11:29:33;;;;;;;1.50;1.00;;;;;;;12.78;100.00;99841.16;6078086;23;20229;-83
2023/10/16 11:32:06;;;;;;;2.47;1.40;;;;;;;12.88;100.00;99844.09;6078133;23;20184;-83
2023/10/16 11:34:43;;;;;;;2.47;1.20;;;;;;;12.82;100.00;99836.97;6079457;23;20170;-85
2023/10/16 11:37:13;;;;;;;1.63;1.00;;;;;;;12.80;100.00;99831.81;6101624;23;20175;-84
2023/10/16 11:39:44;;;;;;;1.80;1.23;;;;;;;12.82;100.00;99834.28;6101081;23;20173;-85
2023/10/16 11:42:16;;;;;;;1.77;1.10;;;;;;;13.04;100.00;99831.88;6102638;23;20168;-83
2023/10/16 11:44:44;;;;;;;3.30;1.03;;;;;;;13.15;100.00;99833.81;6077658;23;20828;-83
2023/10/16 11:47:18;;;;;;;1.23;1.10;;;;;;;13.26;100.00;99822.22;6101206;23;20173;-84
2023/10/16 11:49:58;;;;;;;1.73;1.10;;;;;;;13.35;100.00;99815.44;6078814;23;20173;-83
2023/10/16 11:52:27;;;;;;;1.83;1.10;;;;;;;13.36;100.00;99817.09;6078774;23;20173;-83
2023/10/16 11:54:58;;;;;;;2.67;1.20;;;;;;;13.40;98.26;99817.44;6078024;23;20185;-83
2023/10/16 11:57:25;;;;;;;1.30;1.00;;;;;;;13.48;99.26;99812.56;6077812;23;20185;-83
2023/10/16 12:00:15;;;;;;;1.07;1.00;;;;;;;13.66;99.77;99806.22;6102545;23;20239;-84
2023/10/16 12:02:46;;;;;;;1.17;1.07;;;;;;;13.82;98.16;99804.66;6101629;23;20257;-84
2023/10/16 12:05:16;;;;;;;2.30;1.27;;;;;;;13.93;97.02;99796.56;6125231;23;20174;-83
2023/10/16 12:07:48;;;;;;;1.47;0.90;;;;;;;14.04;95.82;99794.94;6125229;23;20224;-84
2023/10/16 12:10:20;;;;;;;1.30;0.93;;;;;;;14.08;95.06;99793.38;6101471;23;20194;-83
2023/10/16 12:12:55;;;;;;;1.63;1.10;;;;;;;14.27;94.47;99797.56;6078012;23;20194;-84
2023/10/16 12:15:35;;;;;;;1.27;1.00;;;;;;;14.35;94.03;99793.66;6101561;23;20172;-83
2023/10/16 12:18:09;;;;;;;2.70;1.17;;;;;;;13.96;93.05;99796.09;6101193;23;20176;-83
2023/10/16 12:20:44;;;;;;;1.03;0.90;;;;;;;13.52;95.67;99789.50;6079057;23;20178;-83
2023/10/16 12:23:15;;;;;;;2.10;1.10;;;;;;;13.83;95.33;99782.06;6100764;23;20175;-83
2023/10/16 12:25:46;;;;;;;1.73;1.00;;;;;;;13.97;92.57;99778.88;6101468;23;20154;-82
2023/10/16 12:28:25;;;;;;;1.20;1.10;;;;;;;13.86;92.41;99782.41;6124398;23;20673;-83
2023/10/16 12:30:57;;;;;;;1.70;1.17;;;;;;;14.06;94.68;99780.16;6076894;23;20263;-83
2023/10/16 12:33:27;;;;;;;1.37;1.10;;;;;;;14.20;96.03;99785.25;6124653;23;20151;-82
2023/10/16 12:36:07;;;;;;;1.00;0.90;;;;;;;13.96;95.28;99777.25;6102210;23;20216;-83
2023/10/16 12:38:35;;;;;;;1.87;1.20;;;;;;;13.91;93.15;99781.69;6101145;23;20170;-83
2023/10/16 12:41:05;;;;;;;2.73;1.30;;;;;;;13.81;93.29;99779.59;6076951;23;20269;-83
2023/10/16 12:43:36;;;;;;;1.73;1.17;;;;;;;13.37;92.41;99774.84;6100291;23;20180;-83
2023/10/16 12:46:10;;;;;;;2.10;1.00;;;;;;;12.91;96.34;99770.22;6125072;23;20173;-83
2023/10/16 12:48:43;;;;;;;3.13;1.20;;;;;;;12.98;97.04;99768.22;6100590;23;20253;-82
2023/10/16 12:51:11;;;;;;;2.10;1.20;;;;;;;13.34;97.05;99768.09;6101152;23;20707;-83
2023/10/16 12:53:39;;;;;;;2.93;1.30;;;;;;;13.34;93.06;99761.88;6076614;23;20173;-84
2023/10/16 12:56:06;;;;;;;1.30;1.00;;;;;;;13.12;89.68;99754.38;6099875;23;20204;-83
2023/10/16 12:58:37;;;;;;;0.90;0.80;;;;;;;13.19;90.12;99760.47;6124831;23;20165;-84
2023/10/16 13:01:10;;;;;;;2.00;1.00;;;;;;;12.87;89.32;99758.28;6100904;23;20172;-85
2023/10/16 13:03:41;;;;;;;2.07;1.27;;;;;;;13.04;88.67;99756.56;6101383;23;20196;-83
2023/10/16 13:06:09;;;;;;;1.90;0.90;;;;;;;12.65;90.13;99758.00;6076900;23;20262;-84
2023/10/16 13:08:37;;;;;;;2.33;1.10;;;;;;;12.51;88.38;99753.84;6124744;23;20174;-83
2023/10/16 13:11:07;;;;;;;1.27;0.90;;;;;;;12.74;88.32;99751.22;6076696;23;20189;-86
2023/10/16 13:13:42;;;;;;;1.00;0.87;;;;;;;12.94;90.24;99756.31;6100681;23;20193;-83
2023/10/16 13:16:10;;;;;;;1.43;0.93;;;;;;;12.70;93.98;99748.19;6077523;23;20173;-85
2023/10/16 13:18:37;;;;;;;1.90;0.90;;;;;;;12.77;94.47;99748.09;6076909;23;20199;-82
2023/10/16 13:21:12;;;;;;;1.10;0.80;;;;;;;12.76;95.04;99735.72;6100664;23;20219;-82
2023/10/16 13:23:47;;;;;;;1.33;1.00;;;;;;;12.92;95.24;99742.28;6081495;23;20173;-83
2023/10/16 13:26:18;;;;;;;1.40;1.10;;;;;;;12.59;92.43;99740.94;6082683;23;20168;-83
2023/10/16 13:28:49;;;;;;;1.83;0.90;;;;;;;12.32;95.26;99739.66;6102008;23;20618;-85
2023/10/16 13:31:20;;;;;;;2.23;1.00;;;;;;;12.40;93.47;99730.47;6078379;23;20192;-83
2023/10/16 13:33:50;;;;;;;1.43;1.00;;;;;;;12.56;95.50;99729.81;6100200;23;20176;-86
2023/10/16 13:36:19;;;;;;;3.07;0.90;;;;;;;12.62;94.11;99734.28;6101498;23;20166;-83
2023/10/16 13:38:50;;;;;;;1.97;0.90;;;;;;;12.60;92.67;99731.81;6076519;23;20198;-85
2023/10/16 13:41:25;;;;;;;1.73;0.90;;;;;;;12.70;90.88;99726.69;6102354;23;20160;-86
2023/10/16 13:43:59;;;;;;;1.17;1.00;;;;;;;12.83;90.98;99731.03;6077379;23;20173;-85
2023/10/16 13:46:35;;;;;;;1.70;0.87;;;;;;;12.80;90.79;99734.19;6102026;23;20161;-85
2023/10/16 13:49:04;;;;;;;1.20;1.10;;;;;;;12.44;90.29;99731.66;6101726;23;20176;-85
2023/10/16 13:51:47;;;;;;;1.70;1.07;;;;;;;12.50;91.15;99739.63;6084238;23;20190;-85
2023/10/16 13:54:20;;;;;;;1.60;0.97;;;;;;;12.46;90.09;99733.06;6103287;23;20172;-85